Amberjack — V7IT8 — position and weather

sailwx.info

Track history (hours):
 
Tides and Currents Weather Stations Pressure Air Temp Water Temp Dewpoint Dewpoint Depression Visibility Wind Speed Wind Dir Waves Ship Positions

Amberjack

Last reported at 2017-Dec-14 13:22 UTC. Time now 2018-Jan-19 13:33 UTC.
Position N 23°41' E 122°30'.
Warning: this ship's position is 36 days out of date.

Length 230 m; draft 15.1 m.

Type: Tanker. MMSI: 538002451.

Date/timePositionNaut miles runAvg speedWind from/ knotsBaromVisibWave heightAir tempDewpointWater temp
2017-Dec-14 13:22N 23°41' E 122°30'411.9
2017-Dec-14 13:00N 23°45' E 122°32'612.2
2017-Dec-14 12:31N 23°51' E 122°33'612.5
2017-Dec-14 12:00N 23°57' E 122°35'612.8
2017-Dec-14 11:31N 24°03' E 122°37'612.9
2017-Dec-14 11:01N 24°09' E 122°38'612.8
2017-Dec-14 10:30N 24°15' E 122°40'612.7
2017-Dec-14 10:00N 24°22' E 122°41'612.0
2017-Dec-14 09:30N 24°27' E 122°43'611.5
2017-Dec-14 09:00N 24°33' E 122°44'510.9
2017-Dec-14 08:30N 24°38' E 122°46'611.2
2017-Dec-14 08:01N 24°44' E 122°48'611.4
2017-Dec-14 07:31N 24°49' E 122°50'612.1
2017-Dec-14 07:01N 24°55' E 122°52'612.4
2017-Dec-14 06:31N 25°01' E 122°54'612.4
2017-Dec-14 06:00N 25°07' E 122°56'612.4
2017-Dec-14 05:31N 25°12' E 122°59'  
Track history (hours):
 
Tides and Currents Weather Stations Pressure Air Temp Water Temp Dewpoint Dewpoint Depression Visibility Wind Speed Wind Dir Waves Ship Positions

Amberjack

Last reported at 2017-Dec-14 13:22 UTC. Time now 2018-Jan-19 13:33 UTC.
Position N 23°41' E 122°30'.
Warning: this ship's position is 36 days out of date.

Length 230 m; draft 15.1 m.

Type: Tanker. MMSI: 538002451.

Date/timePositionNaut miles runAvg speedWind from/ knotsBaromVisibWave heightAir tempDewpointWater temp
2017-Dec-14 13:22N 23°41' E 122°30'411.9
2017-Dec-14 13:00N 23°45' E 122°32'612.2
2017-Dec-14 12:31N 23°51' E 122°33'612.5
2017-Dec-14 12:00N 23°57' E 122°35'612.8
2017-Dec-14 11:31N 24°03' E 122°37'612.9
2017-Dec-14 11:01N 24°09' E 122°38'612.8
2017-Dec-14 10:30N 24°15' E 122°40'612.7
2017-Dec-14 10:00N 24°22' E 122°41'612.0
2017-Dec-14 09:30N 24°27' E 122°43'611.5
2017-Dec-14 09:00N 24°33' E 122°44'510.9
2017-Dec-14 08:30N 24°38' E 122°46'611.2
2017-Dec-14 08:01N 24°44' E 122°48'611.4
2017-Dec-14 07:31N 24°49' E 122°50'612.1
2017-Dec-14 07:01N 24°55' E 122°52'612.4
2017-Dec-14 06:31N 25°01' E 122°54'612.4
2017-Dec-14 06:00N 25°07' E 122°56'612.4
2017-Dec-14 05:31N 25°12' E 122°59'  

Dump ship's entire track history